Wellington International Airport
NZWN : rendu visible

Aérodrome :











RETROUVEZ-NOUS SUR...

 
LOGIN :

S'inscrire | Disclaimer

   EN    FR    IT 

 









Légende :    VFR   VFR Marginal   IFR   IFR Intensif   IFR Très Intensif
Visi : 
Plafond : 
>= 8 km
>= 3000ft
5 à 8 km
1000 à 3000 ft
1500m à 5 km
500 à 1000 ft
800 à 1500m
200 à 500 ft
< 800m
< 200 ft
Symboles :   Orages  Brouillard  Fortes neiges  Fortes précipitations  Vent > 20 kt






- Altitude de l'aérodrome : 41 ft
- Code IATA : WLG


NZWN - Wellington International

DERNIER METAR :
  • 021200Z AUTO 01012KT 9999 NCD 11/09 Q1015 NOSIG

METARs EXPIRÉS :
  • 021130Z AUTO 01011KT 9999 NCD 11/09 Q1015 NOSIG
  • 021100Z AUTO 02010KT 9999 NCD 12/09 Q1015 NOSIG
  • 021030Z AUTO 36011KT 9999 NCD 12/10 Q1015 NOSIG
  • 021000Z AUTO 02011KT 9999 NCD 12/10 Q1015 NOSIG
  • 020930Z AUTO 01011KT 9999 NCD 13/10 Q1015 NOSIG

TAF TAF NZWN
Valide du 02 à 12h jusqu'au 03 à 12h UTC


021105Z 0212/0312 02010KT 9999 FEW020
BECMG 0218/0220 36018G30KT
BECMG 0302/0304 02012KT
TEMPO 0308/0312 7000 RA
FIR NZZC / Océanie



MET'MAP, la Météo Aéronautique d'un coup d'oeil ! - Copyright ORBIFLY Décembre 2007 - Disclaimer

ORBIFLY MET'MAP TEAM :

Programmation & Développement : Alexandra Zaïnal
Sur une idée originale de : Baudouin d'Aumeries
Assistance à la programmation : Marc-Olivier Méhu
Soutien technique & logistique : Manuel Goepfert

Contact : metmap@orbifly.com




SOURCES & CREDITS :

   NOAA       Earth
Advisory